Time;durP1;ratioP1;P1;durP2;ratioP2;P2;SDS_P1;SDS_P2;PMS_P1;PMS_P2;Temp;Humidity;BMP_temperature;BMP_pressure;BME280_temperature;BME280_humidity;BME280_pressure;Samples;Min_cycle;Max_cycle;Signal;HPM_P1;HPM_P2
2021/11/09 00:02:10;;;;;;;;;;;;;;;6.91;49.82;96338.16;5001957;28;19922;-75
2021/11/09 00:04:37;;;;;;;;;;;;;;;6.98;50.78;96341.94;4999508;28;20218;-75
2021/11/09 00:07:47;;;;;;;;;;;;;;;6.81;50.20;96351.38;5000883;28;20143;-75
2021/11/09 00:10:06;;;;;;;;;;;;;;;6.81;46.57;96340.78;4989882;28;19921;-74
2021/11/09 00:12:42;;;;;;;;;;;;;;;6.76;46.55;96341.19;4993923;28;20428;-73
2021/11/09 00:15:09;;;;;;;;;;;;;;;6.71;49.86;96344.25;5000054;28;20507;-73
2021/11/09 00:17:34;;;;;;;;;;;;;;;6.82;49.73;96337.16;4999874;28;19930;-75
2021/11/09 00:20:00;;;;;;;;;;;;;;;6.88;48.56;96342.72;4999381;28;19937;-74
2021/11/09 00:22:25;;;;;;;;;;;;;;;6.87;48.24;96337.59;5000505;28;19964;-76
2021/11/09 00:24:51;;;;;;;;;;;;;;;6.87;49.01;96337.59;5000146;28;20393;-74
2021/11/09 00:27:16;;;;;;;;;;;;;;;6.91;50.52;96341.66;4999250;28;19925;-75
2021/11/09 00:29:41;;;;;;;;;;;;;;;6.93;50.26;96337.03;5000914;28;19932;-75
2021/11/09 00:32:07;;;;;;;;;;;;;;;6.96;50.34;96331.47;4983335;28;19921;-73
2021/11/09 00:34:32;;;;;;;;;;;;;;;6.94;47.46;96335.25;4998933;28;19925;-74
2021/11/09 00:36:58;;;;;;;;;;;;;;;6.83;47.46;96329.09;4999538;28;19929;-74
2021/11/09 00:39:23;;;;;;;;;;;;;;;6.93;48.87;96338.88;5001021;28;19983;-74
2021/11/09 00:41:49;;;;;;;;;;;;;;;6.83;46.80;96344.97;4999783;28;20404;-74
2021/11/09 00:44:14;;;;;;;;;;;;;;;6.76;47.47;96341.19;5016084;28;20404;-75
2021/11/09 00:46:39;;;;;;;;;;;;;;;6.68;47.29;96341.03;4992765;28;19918;-75
2021/11/09 00:49:05;;;;;;;;;;;;;;;6.77;50.34;96341.06;4995130;28;19918;-74
2021/11/09 00:51:30;;;;;;;;;;;;;;;6.91;49.28;96344.28;5001137;28;19921;-74
2021/11/09 00:53:55;;;;;;;;;;;;;;;6.92;48.81;96343.31;4999544;28;19925;-76
2021/11/09 00:56:21;;;;;;;;;;;;;;;6.91;48.99;96343.44;4999675;28;19929;-74
2021/11/09 00:58:46;;;;;;;;;;;;;;;6.92;49.98;96345.13;4994135;28;19976;-75
2021/11/09 01:01:11;;;;;;;;;;;;;;;6.85;49.98;96344.84;4999294;28;20437;-74
2021/11/09 01:03:36;;;;;;;;;;;;;;;6.79;49.66;96338.28;4999211;28;20008;-74
2021/11/09 01:06:02;;;;;;;;;;;;;;;6.82;50.69;96339.81;4989085;28;19921;-74
2021/11/09 01:08:27;;;;;;;;;;;;;;;6.88;49.50;96336.63;4990314;28;19930;-76
2021/11/09 01:10:53;;;;;;;;;;;;;;;6.86;48.65;96343.84;4995387;28;19929;-75
2021/11/09 01:13:18;;;;;;;;;;;;;;;6.89;50.48;96338.28;5011314;28;19953;-75
2021/11/09 01:15:49;;;;;;;;;;;;;;;6.89;47.61;96344.44;4996964;28;19925;-75
2021/11/09 01:18:15;;;;;;;;;;;;;;;6.83;47.47;96337.03;5026799;28;20453;-74
2021/11/09 01:20:40;;;;;;;;;;;;;;;6.75;49.56;96350.09;5027843;28;20394;-74
2021/11/09 01:23:05;;;;;;;;;;;;;;;6.83;51.90;96341.50;4995754;28;19972;-75
2021/11/09 01:25:32;;;;;;;;;;;;;;;6.91;51.13;96341.66;4997088;28;19949;-76
2021/11/09 01:27:57;;;;;;;;;;;;;;;6.89;50.46;96336.50;5013969;28;19953;-76
2021/11/09 01:30:23;;;;;;;;;;;;;;;6.60;49.94;96339.88;5015167;28;19952;-74
2021/11/09 01:32:49;;;;;;;;;;;;;;;6.61;52.61;96338.94;5014374;28;19928;-74
2021/11/09 01:35:14;;;;;;;;;;;;;;;6.70;50.00;96344.38;5031838;28;20027;-74
2021/11/09 01:37:39;;;;;;;;;;;;;;;6.76;49.94;96335.88;4999376;28;19928;-76
2021/11/09 01:40:06;;;;;;;;;;;;;;;6.83;49.98;96338.84;5000605;28;20382;-74
2021/11/09 01:42:31;;;;;;;;;;;;;;;6.76;47.66;96344.69;5000091;28;19913;-75
2021/11/09 01:44:57;;;;;;;;;;;;;;;6.78;47.23;96347.19;5000342;28;19921;-76
2021/11/09 01:47:22;;;;;;;;;;;;;;;6.74;50.71;96349.25;5031709;28;20652;-74
2021/11/09 01:49:47;;;;;;;;;;;;;;;6.74;48.58;96345.78;5000718;28;19918;-75
2021/11/09 01:52:13;;;;;;;;;;;;;;;6.67;48.61;96342.00;4998495;28;19935;-76
2021/11/09 01:54:38;;;;;;;;;;;;;;;6.67;49.00;96347.31;5000652;28;19917;-75
2021/11/09 01:57:03;;;;;;;;;;;;;;;6.69;49.99;96351.47;5015037;28;19925;-75
2021/11/09 01:59:31;;;;;;;;;;;;;;;6.71;49.11;96351.34;4995363;28;19958;-76
2021/11/09 02:01:56;;;;;;;;;;;;;;;6.66;47.03;96340.34;4998163;28;19925;-75
2021/11/09 02:04:21;;;;;;;;;;;;;;;6.65;51.07;96342.16;5031852;28;19918;-74
2021/11/09 02:06:46;;;;;;;;;;;;;;;6.69;49.39;96340.91;4998801;28;20090;-75
2021/11/09 02:09:14;;;;;;;;;;;;;;;6.75;48.20;96345.66;4999105;28;19913;-76
2021/11/09 02:11:39;;;;;;;;;;;;;;;6.52;51.58;96330.97;4998542;28;20597;-74
2021/11/09 02:14:04;;;;;;;;;;;;;;;6.53;50.41;96333.47;5015765;28;19918;-76
2021/11/09 02:16:30;;;;;;;;;;;;;;;6.69;50.96;96337.41;5001121;28;19921;-76
2021/11/09 02:18:55;;;;;;;;;;;;;;;6.75;48.09;96336.88;4998693;28;20382;-74
2021/11/09 02:21:20;;;;;;;;;;;;;;;6.68;50.24;96339.22;4998981;28;20229;-73
2021/11/09 02:23:46;;;;;;;;;;;;;;;6.59;48.36;96340.03;4998757;28;20000;-75
2021/11/09 02:26:15;;;;;;;;;;;;;;;6.57;52.08;96339.34;4999150;28;19913;-75
2021/11/09 02:28:41;;;;;;;;;;;;;;;6.70;51.70;96342.56;4998756;28;19940;-75
2021/11/09 02:31:06;;;;;;;;;;;;;;;6.69;51.76;96356.78;4998415;28;19922;-76
2021/11/09 02:33:32;;;;;;;;;;;;;;;6.63;47.32;96354.66;4999294;28;19984;-76
2021/11/09 02:35:57;;;;;;;;;;;;;;;6.58;48.34;96363.03;4999761;28;19921;-75
2021/11/09 02:38:22;;;;;;;;;;;;;;;6.67;50.83;96364.03;4999189;28;20123;-75
2021/11/09 02:40:48;;;;;;;;;;;;;;;6.83;49.24;96365.31;4998617;28;19917;-76
2021/11/09 02:43:14;;;;;;;;;;;;;;;6.91;47.48;96360.19;4999321;28;20408;-74
2021/11/09 02:46:24;;;;;;;;;;;;;;;6.93;46.81;96360.03;5003791;28;19948;-74
2021/11/09 02:48:39;;;;;;;;;;;;;;;6.62;47.12;96358.28;5002339;28;20128;-76
2021/11/09 02:51:09;;;;;;;;;;;;;;;6.64;49.63;96356.34;5001956;28;19921;-74
2021/11/09 02:54:20;;;;;;;;;;;;;;;6.60;49.78;96355.75;5002413;28;20564;-75
2021/11/09 02:56:31;;;;;;;;;;;;;;;6.62;49.97;96350.34;5002870;28;20317;-74
2021/11/09 03:04:53;;;;;;;;;;;;;;;6.77;51.58;96356.13;5001488;28;19968;-75
2021/11/09 03:07:43;;;;;;;;;;;;;;;6.66;52.05;96359.69;5014746;28;19922;-76
2021/11/09 03:10:23;;;;;;;;;;;;;;;6.58;53.43;96360.38;5002422;28;19914;-76
2021/11/09 03:12:48;;;;;;;;;;;;;;;6.47;47.10;96357.78;5001713;28;19921;-75
2021/11/09 03:15:14;;;;;;;;;;;;;;;6.71;47.91;96360.13;5001651;28;19918;-76
2021/11/09 03:17:52;;;;;;;;;;;;;;;6.60;50.88;96366.34;5001392;28;19921;-76
2021/11/09 03:44:54;;;;;;;;;;;;;;;6.48;50.15;96378.84;5003654;28;20044;-76
2021/11/09 03:47:21;;;;;;;;;;;;;;;6.55;49.01;96376.50;5001239;28;20480;-76
2021/11/09 03:49:48;;;;;;;;;;;;;;;6.56;50.53;96382.66;5001255;28;19921;-76
2021/11/09 03:52:18;;;;;;;;;;;;;;;6.67;49.21;96385.19;4999051;28;19929;-76
2021/11/09 03:54:45;;;;;;;;;;;;;;;6.73;50.84;96382.00;4982092;28;20405;-75
2021/11/09 03:59:46;;;;;;;;;;;;;;;6.81;50.63;96386.63;5028682;28;19928;-75
2021/11/09 04:04:49;;;;;;;;;;;;;;;6.79;50.58;96390.34;5000329;28;19925;-77
2021/11/09 04:14:48;;;;;;;;;;;;;;;6.69;50.88;96382.38;5000735;28;20111;-74
2021/11/09 04:30:30;;;;;;;;;;;;;;;6.10;51.90;96388.25;5016280;28;20437;-75
2021/11/09 04:35:57;;;;;;;;;;;;;;;6.20;53.31;96396.22;5001412;28;20000;-75
2021/11/09 05:01:08;;;;;;;;;;;;;;;6.00;49.82;96404.06;4969548;28;20398;-75
2021/11/09 05:10:36;;;;;;;;;;;;;;;5.99;48.62;96413.78;5000657;28;19944;-74
2021/11/09 05:13:02;;;;;;;;;;;;;;;6.06;50.33;96405.34;5000798;28;19922;-74
2021/11/09 05:15:27;;;;;;;;;;;;;;;6.18;50.91;96416.66;4998964;28;20401;-75
2021/11/09 05:17:52;;;;;;;;;;;;;;;6.16;48.93;96408.88;4999345;28;19917;-75
2021/11/09 05:20:18;;;;;;;;;;;;;;;6.09;51.16;96419.13;4998727;28;19926;-76
2021/11/09 05:22:44;;;;;;;;;;;;;;;5.98;48.52;96424.47;4999205;28;19924;-74
2021/11/09 05:25:09;;;;;;;;;;;;;;;6.05;50.17;96420.34;5000785;28;20092;-76
2021/11/09 05:27:35;;;;;;;;;;;;;;;6.08;49.99;96421.91;5000341;28;19928;-75
2021/11/09 05:30:01;;;;;;;;;;;;;;;6.08;49.47;96420.09;5000992;28;19942;-76
2021/11/09 05:32:26;;;;;;;;;;;;;;;6.11;51.28;96424.28;4999155;28;19957;-75
2021/11/09 05:34:51;;;;;;;;;;;;;;;6.16;51.64;96422.09;5000105;28;19971;-75
2021/11/09 05:37:21;;;;;;;;;;;;;;;6.12;46.77;96420.66;5000930;28;20105;-76
2021/11/09 05:39:52;;;;;;;;;;;;;;;6.10;49.42;96417.31;4998702;28;20377;-76
2021/11/09 05:42:18;;;;;;;;;;;;;;;6.09;51.07;96420.94;5000629;28;20394;-74
2021/11/09 05:44:43;;;;;;;;;;;;;;;6.02;49.51;96425.06;5015088;28;19953;-76
2021/11/09 05:47:09;;;;;;;;;;;;;;;5.90;49.39;96425.13;4982383;28;20219;-75
2021/11/09 05:49:34;;;;;;;;;;;;;;;5.63;52.34;96420.31;4997803;28;20253;-75
2021/11/09 05:52:00;;;;;;;;;;;;;;;5.57;52.35;96419.88;5000383;28;19929;-76
2021/11/09 05:54:25;;;;;;;;;;;;;;;5.50;49.14;96423.16;4995869;28;20297;-75
2021/11/09 05:56:50;;;;;;;;;;;;;;;5.32;49.41;96423.69;4990559;28;19925;-76
2021/11/09 05:59:16;;;;;;;;;;;;;;;5.20;50.94;96421.09;4998357;28;19932;-76
2021/11/09 06:01:41;;;;;;;;;;;;;;;5.04;48.42;96431.19;4999843;28;20001;-75
2021/11/09 06:04:06;;;;;;;;;;;;;;;4.78;47.74;96432.28;5000130;28;20218;-75
2021/11/09 06:06:31;;;;;;;;;;;;;;;4.69;50.92;96433.00;5000513;28;19956;-75
2021/11/09 06:08:57;;;;;;;;;;;;;;;4.64;52.42;96438.66;5000105;28;20338;-75
2021/11/09 06:11:22;;;;;;;;;;;;;;;4.57;52.57;96437.47;4999971;28;20039;-74
2021/11/09 06:13:47;;;;;;;;;;;;;;;4.49;50.42;96431.94;5015311;28;20289;-76
2021/11/09 06:16:13;;;;;;;;;;;;;;;4.39;49.97;96432.63;4999584;28;19925;-75
2021/11/09 06:18:38;;;;;;;;;;;;;;;4.21;49.80;96434.91;5016777;28;20433;-75
2021/11/09 06:21:03;;;;;;;;;;;;;;;4.14;52.72;96438.97;5002377;28;20089;-74
2021/11/09 06:23:28;;;;;;;;;;;;;;;4.07;52.57;96439.44;5000967;28;19917;-75
2021/11/09 06:25:54;;;;;;;;;;;;;;;4.01;53.01;96445.16;5002303;28;20405;-74
2021/11/09 06:28:20;;;;;;;;;;;;;;;3.94;53.02;96442.16;5002035;28;19948;-75
2021/11/09 06:30:46;;;;;;;;;;;;;;;3.92;54.94;96445.88;5002270;28;20009;-75
2021/11/09 06:33:12;;;;;;;;;;;;;;;3.90;54.29;96459.16;5003766;28;20018;-75
2021/11/09 06:35:37;;;;;;;;;;;;;;;3.88;54.48;96452.34;5004109;28;19959;-76
2021/11/09 06:38:02;;;;;;;;;;;;;;;3.84;53.07;96459.59;5003507;28;19975;-74
2021/11/09 06:40:27;;;;;;;;;;;;;;;3.79;55.68;96473.16;5001489;28;19925;-72
2021/11/09 06:42:53;;;;;;;;;;;;;;;3.72;53.11;96471.91;5001455;28;19927;-75
2021/11/09 06:45:18;;;;;;;;;;;;;;;3.67;55.33;96471.41;5003533;28;19927;-75
2021/11/09 06:47:44;;;;;;;;;;;;;;;3.60;52.83;96484.19;5001834;28;20341;-74
2021/11/09 06:50:09;;;;;;;;;;;;;;;3.57;57.04;96483.56;5001534;28;19918;-76
2021/11/09 06:52:35;;;;;;;;;;;;;;;3.56;54.49;96485.34;5002374;28;20358;-75
2021/11/09 06:55:02;;;;;;;;;;;;;;;3.59;56.84;96477.25;5001914;28;19957;-74
2021/11/09 06:57:27;;;;;;;;;;;;;;;3.62;55.99;96484.91;5001764;28;20314;-71
2021/11/09 06:59:52;;;;;;;;;;;;;;;3.64;57.02;96490.09;5001133;28;19940;-71
2021/11/09 07:02:19;;;;;;;;;;;;;;;3.66;55.83;96494.28;5002871;28;19925;-70
2021/11/09 07:04:44;;;;;;;;;;;;;;;3.68;54.54;96497.63;5003244;28;19968;-72
2021/11/09 07:07:09;;;;;;;;;;;;;;;3.71;57.00;96495.72;5002398;28;20256;-74
2021/11/09 07:09:34;;;;;;;;;;;;;;;3.73;56.59;96502.56;5001526;28;20048;-73
2021/11/09 07:12:00;;;;;;;;;;;;;;;3.72;52.81;96497.41;5000994;28;20072;-75
2021/11/09 07:14:25;;;;;;;;;;;;;;;3.76;58.98;96498.84;5001327;28;20360;-74
2021/11/09 07:16:52;;;;;;;;;;;;;;;3.63;53.62;96507.66;5000715;28;19993;-73
2021/11/09 07:19:18;;;;;;;;;;;;;;;3.63;50.78;96515.56;5001064;28;19992;-72
2021/11/09 07:21:43;;;;;;;;;;;;;;;3.61;51.84;96524.53;5002551;28;19921;-73
2021/11/09 07:24:09;;;;;;;;;;;;;;;3.75;56.55;96529.66;5002552;28;19917;-74
2021/11/09 07:26:34;;;;;;;;;;;;;;;3.82;57.18;96527.38;5002144;28;20465;-74
2021/11/09 07:28:59;;;;;;;;;;;;;;;3.85;53.12;96534.22;5001733;28;19930;-75
2021/11/09 07:31:25;;;;;;;;;;;;;;;3.98;55.45;96529.72;4997582;28;19949;-74
2021/11/09 07:33:51;;;;;;;;;;;;;;;4.08;55.26;96532.50;4998519;28;19932;-75
2021/11/09 07:36:16;;;;;;;;;;;;;;;4.14;56.28;96534.69;4998017;28;19995;-74
2021/11/09 07:38:42;;;;;;;;;;;;;;;4.22;56.17;96533.28;4996581;28;19930;-76
2021/11/09 07:41:07;;;;;;;;;;;;;;;4.13;50.14;96521.63;4996911;28;19921;-74
2021/11/09 07:43:32;;;;;;;;;;;;;;;3.96;51.35;96518.47;4997051;28;19964;-75
2021/11/09 07:45:59;;;;;;;;;;;;;;;4.02;52.25;96522.44;4996683;28;19972;-76
2021/11/09 07:48:24;;;;;;;;;;;;;;;4.17;55.22;96526.56;4997191;28;20356;-74
2021/11/09 07:50:50;;;;;;;;;;;;;;;4.25;51.48;96525.16;4995689;28;19971;-76
2021/11/09 07:53:16;;;;;;;;;;;;;;;4.39;57.62;96527.56;4995746;28;20285;-73
2021/11/09 07:56:09;;;;;;;;;;;;;;;4.65;56.31;96522.09;5006774;28;19925;-75
2021/11/09 08:01:15;;;;;;;;;;;;;;;4.77;51.30;96522.97;4995937;28;19929;-74
2021/11/09 08:04:03;;;;;;;;;;;;;;;4.83;53.05;96525.09;4993057;28;19922;-74
2021/11/09 08:06:31;;;;;;;;;;;;;;;4.93;51.54;96524.41;4997260;28;20361;-74
2021/11/09 08:11:42;;;;;;;;;;;;;;;4.97;51.87;96525.84;4997683;28;19991;-74
2021/11/09 08:14:08;;;;;;;;;;;;;;;4.95;52.42;96522.47;4998100;28;19927;-73
2021/11/09 08:16:33;;;;;;;;;;;;;;;5.12;53.79;96525.59;4996109;28;19921;-73
2021/11/09 08:18:58;;;;;;;;;;;;;;;5.29;52.60;96525.13;4997103;28;20389;-74
2021/11/09 08:21:24;;;;;;;;;;;;;;;5.54;54.18;96524.97;5009937;28;20015;-75
2021/11/09 08:23:49;;;;;;;;;;;;;;;5.66;50.31;96517.84;4995941;28;19932;-73
2021/11/09 08:26:19;;;;;;;;;;;;;;;5.80;55.62;96516.72;4996086;28;19956;-73
2021/11/09 08:28:45;;;;;;;;;;;;;;;5.83;55.57;96521.75;4988878;28;19931;-75
2021/11/09 08:31:12;;;;;;;;;;;;;;;5.99;55.03;96522.16;4995720;28;19925;-75
2021/11/09 08:33:37;;;;;;;;;;;;;;;6.19;51.70;96522.31;4996881;28;19929;-72
2021/11/09 08:36:06;;;;;;;;;;;;;;;6.25;53.43;96524.44;4995701;28;19925;-75
2021/11/09 08:38:32;;;;;;;;;;;;;;;6.28;54.53;96526.00;4992855;28;19933;-75
2021/11/09 08:41:00;;;;;;;;;;;;;;;6.53;48.63;96523.94;4995215;28;19983;-75
2021/11/09 08:43:28;;;;;;;;;;;;;;;6.75;50.16;96528.28;4997362;28;20243;-75
2021/11/09 08:48:23;;;;;;;;;;;;;;;6.73;51.61;96530.19;4998732;28;19926;-73
2021/11/09 08:50:51;;;;;;;;;;;;;;;6.76;50.92;96527.28;4997217;28;20394;-73
2021/11/09 08:53:24;;;;;;;;;;;;;;;7.04;52.52;96533.84;4997225;28;20052;-76
2021/11/09 09:06:37;;;;;;;;;;;;;;;7.35;50.36;96528.50;4992074;28;19928;-75
2021/11/09 09:09:02;;;;;;;;;;;;;;;7.65;48.07;96527.59;4998677;28;20198;-73
2021/11/09 09:11:27;;;;;;;;;;;;;;;7.77;44.37;96528.34;4993737;28;19957;-74
2021/11/09 09:13:52;;;;;;;;;;;;;;;7.90;42.79;96533.38;5013466;28;20408;-74
2021/11/09 09:16:18;;;;;;;;;;;;;;;7.71;44.03;96536.81;4997460;28;20008;-75
2021/11/09 09:18:43;;;;;;;;;;;;;;;7.08;44.46;96543.19;4999161;28;19932;-74
2021/11/09 09:21:13;;;;;;;;;;;;;;;7.57;44.71;96540.69;4996443;28;19929;-75
2021/11/09 09:23:44;;;;;;;;;;;;;;;7.81;40.71;96546.59;4991414;28;22322;-73
2021/11/09 09:55:50;;;;;;;;;;;;;;;8.05;45.59;96568.28;4996751;28;20107;-75
2021/11/09 09:58:15;;;;;;;;;;;;;;;8.23;41.90;96570.22;4994014;28;19956;-74
2021/11/09 10:00:41;;;;;;;;;;;;;;;8.39;47.98;96571.47;4996792;28;19925;-74
2021/11/09 10:03:06;;;;;;;;;;;;;;;8.46;42.23;96569.13;4996028;28;19929;-74
2021/11/09 10:05:37;;;;;;;;;;;;;;;8.75;39.24;96568.22;4994885;28;19932;-73
2021/11/09 10:08:06;;;;;;;;;;;;;;;8.65;46.04;96570.91;4994036;28;19976;-75
2021/11/09 10:10:34;;;;;;;;;;;;;;;8.90;42.50;96572.09;4979335;28;20461;-76
2021/11/09 10:13:04;;;;;;;;;;;;;;;8.35;42.46;96573.59;4995984;28;19932;-76
2021/11/09 10:15:30;;;;;;;;;;;;;;;8.83;44.45;96578.97;4996501;28;19925;-73
2021/11/09 10:17:57;;;;;;;;;;;;;;;8.91;40.05;96562.31;4997469;28;20472;-74
2021/11/09 10:20:27;;;;;;;;;;;;;;;9.07;37.81;96562.59;4997681;28;20376;-75
2021/11/09 10:22:57;;;;;;;;;;;;;;;9.10;43.61;96560.59;4996306;28;20015;-75
2021/11/09 10:25:22;;;;;;;;;;;;;;;9.13;43.19;96558.50;4997128;28;20342;-75
2021/11/09 10:27:49;;;;;;;;;;;;;;;9.33;43.29;96561.94;4997816;28;19953;-75
2021/11/09 10:30:24;;;;;;;;;;;;;;;9.65;41.70;96565.09;4996537;28;20028;-75
2021/11/09 10:32:50;;;;;;;;;;;;;;;9.83;42.37;96561.66;4996959;28;20397;-75
2021/11/09 10:35:15;;;;;;;;;;;;;;;10.10;41.01;96562.63;4997378;28;19930;-76
2021/11/09 10:37:48;;;;;;;;;;;;;;;10.35;36.94;96561.03;4995879;28;19925;-73
2021/11/09 10:40:13;;;;;;;;;;;;;;;9.80;35.93;96557.44;4996118;28;19936;-74
2021/11/09 10:42:39;;;;;;;;;;;;;;;9.98;39.30;96554.84;4997598;28;19921;-75
2021/11/09 10:45:10;;;;;;;;;;;;;;;10.45;36.65;96555.59;4997616;28;19925;-74
2021/11/09 10:47:40;;;;;;;;;;;;;;;8.71;36.66;96559.72;4994487;28;19929;-75
2021/11/09 10:50:09;;;;;;;;;;;;;;;9.48;40.60;96558.75;4997741;28;19952;-76
2021/11/09 10:52:36;;;;;;;;;;;;;;;9.51;42.15;96557.63;4995294;28;19925;-74
2021/11/09 10:55:31;;;;;;;;;;;;;;;10.00;41.51;96546.72;4995388;28;20397;-75
2021/11/09 11:03:22;;;;;;;;;;;;;;;10.97;35.74;96539.78;4997469;28;20004;-76
2021/11/09 11:05:48;;;;;;;;;;;;;;;10.84;37.96;96533.06;5001365;28;20293;-76
2021/11/09 11:08:14;;;;;;;;;;;;;;;10.91;34.25;96540.44;4996858;28;20022;-74
2021/11/09 11:10:39;;;;;;;;;;;;;;;10.88;32.99;96534.41;4998918;28;19968;-76
2021/11/09 11:13:20;;;;;;;;;;;;;;;10.81;36.07;96536.03;5001101;28;20015;-76
2021/11/09 11:16:05;;;;;;;;;;;;;;;10.25;32.55;96538.97;4998297;28;19984;-76
2021/11/09 11:18:36;;;;;;;;;;;;;;;10.22;39.70;96536.59;5000446;28;19925;-76
2021/11/09 11:21:01;;;;;;;;;;;;;;;6.84;41.98;96537.22;5002042;28;20398;-75
2021/11/09 11:23:26;;;;;;;;;;;;;;;9.09;37.07;96530.56;4999047;28;19932;-75
2021/11/09 11:25:52;;;;;;;;;;;;;;;9.78;35.37;96529.34;4999302;28;19925;-74
2021/11/09 11:28:17;;;;;;;;;;;;;;;10.22;35.26;96516.16;4996102;28;20293;-74
2021/11/09 11:30:43;;;;;;;;;;;;;;;10.63;34.28;96517.44;4998826;28;20166;-74
2021/11/09 11:33:08;;;;;;;;;;;;;;;10.75;32.37;96516.19;4999493;28;19940;-76
2021/11/09 11:35:33;;;;;;;;;;;;;;;11.04;35.47;96519.50;4998061;28;19928;-75
2021/11/09 11:37:59;;;;;;;;;;;;;;;11.17;34.34;96510.28;4997283;28;19921;-74
2021/11/09 11:40:24;;;;;;;;;;;;;;;11.36;32.97;96518.00;4998718;28;19922;-75
2021/11/09 11:42:49;;;;;;;;;;;;;;;11.62;34.75;96510.94;4995657;28;19921;-73
2021/11/09 11:45:15;;;;;;;;;;;;;;;11.86;33.13;96503.97;5010985;28;20028;-72
2021/11/09 11:47:40;;;;;;;;;;;;;;;12.30;34.69;96500.19;4992416;28;19921;-71
2021/11/09 11:50:09;;;;;;;;;;;;;;;13.24;32.11;96496.19;5000355;28;19925;-72
2021/11/09 11:52:42;;;;;;;;;;;;;;;14.40;31.30;96493.81;5000024;28;20350;-73
2021/11/09 11:55:08;;;;;;;;;;;;;;;16.59;28.98;96487.19;5000203;28;20629;-75
2021/11/09 11:57:36;;;;;;;;;;;;;;;18.98;25.28;96481.25;4980303;28;20044;-73
2021/11/09 12:00:03;;;;;;;;;;;;;;;21.15;22.67;96488.03;5013867;28;20554;-74
2021/11/09 12:02:32;;;;;;;;;;;;;;;21.84;19.73;96482.41;5015057;28;19976;-77
2021/11/09 12:04:58;;;;;;;;;;;;;;;23.50;18.32;96477.38;4995950;28;19926;-74
2021/11/09 12:07:43;;;;;;;;;;;;;;;25.08;17.97;96488.78;4998136;28;20602;-75
2021/11/09 12:10:09;;;;;;;;;;;;;;;26.69;15.47;96480.72;5000420;28;19918;-71
2021/11/09 12:12:34;;;;;;;;;;;;;;;27.17;13.64;96479.94;4997279;28;19956;-74
2021/11/09 12:15:01;;;;;;;;;;;;;;;27.73;12.64;96476.63;4997486;28;19925;-72
2021/11/09 12:17:46;;;;;;;;;;;;;;;28.02;13.38;96476.16;4998681;28;20038;-73
2021/11/09 12:20:13;;;;;;;;;;;;;;;28.06;14.78;96470.09;4992390;28;20000;-75
2021/11/09 12:22:40;;;;;;;;;;;;;;;28.62;12.44;96471.25;4991169;28;19926;-76
2021/11/09 12:25:06;;;;;;;;;;;;;;;29.14;14.39;96471.19;4996619;28;20369;-74
2021/11/09 12:27:47;;;;;;;;;;;;;;;29.34;12.98;96472.25;5000793;28;19983;-76
2021/11/09 12:30:36;;;;;;;;;;;;;;;28.67;13.21;96461.16;4992540;28;20603;-77
2021/11/09 12:33:02;;;;;;;;;;;;;;;29.50;11.21;96467.53;5003691;28;19929;-74
2021/11/09 12:35:27;;;;;;;;;;;;;;;28.57;14.39;96455.66;5002398;28;20428;-76
2021/11/09 12:38:02;;;;;;;;;;;;;;;29.40;13.56;96454.69;5001699;28;19932;-73
2021/11/09 12:40:27;;;;;;;;;;;;;;;30.57;12.45;96447.06;4989827;28;19929;-74
2021/11/09 12:43:12;;;;;;;;;;;;;;;29.89;12.45;96447.56;4983450;28;19932;-73
2021/11/09 12:45:38;;;;;;;;;;;;;;;31.43;12.05;96450.28;5001124;28;20350;-71
2021/11/09 12:48:04;;;;;;;;;;;;;;;31.22;12.37;96445.06;5002398;28;20366;-73
2021/11/09 12:50:30;;;;;;;;;;;;;;;31.20;10.62;96439.84;5002629;28;20257;-74
2021/11/09 12:53:05;;;;;;;;;;;;;;;30.41;11.33;96438.97;5002954;28;19967;-74
2021/11/09 12:55:31;;;;;;;;;;;;;;;30.05;12.46;96431.81;5017051;28;20401;-74
2021/11/09 12:58:10;;;;;;;;;;;;;;;30.02;10.64;96443.38;5002156;28;19956;-74
2021/11/09 13:00:40;;;;;;;;;;;;;;;29.91;10.40;96439.88;5002399;28;19929;-73
2021/11/09 13:03:20;;;;;;;;;;;;;;;30.64;12.59;96430.25;4994756;28;20402;-74
2021/11/09 13:05:52;;;;;;;;;;;;;;;31.26;12.37;96435.09;5015084;28;19925;-75
2021/11/09 13:08:26;;;;;;;;;;;;;;;31.68;9.91;96431.84;5000815;28;19986;-75
2021/11/09 13:10:52;;;;;;;;;;;;;;;31.83;9.86;96426.13;5000300;28;19932;-75
2021/11/09 13:13:21;;;;;;;;;;;;;;;32.50;11.36;96426.97;5017560;28;20398;-74
2021/11/09 13:15:46;;;;;;;;;;;;;;;33.39;9.48;96423.41;5001871;28;19936;-74
2021/11/09 13:18:12;;;;;;;;;;;;;;;33.54;8.52;96417.91;4994691;28;19926;-73
2021/11/09 13:20:48;;;;;;;;;;;;;;;34.15;8.57;96409.31;4998348;28;19929;-75
2021/11/09 13:23:15;;;;;;;;;;;;;;;34.16;9.65;96414.53;4995974;28;20299;-75
2021/11/09 13:25:51;;;;;;;;;;;;;;;34.71;9.59;96409.03;5001768;28;20024;-75
2021/11/09 13:28:19;;;;;;;;;;;;;;;34.87;8.92;96417.72;4993681;28;19952;-74
2021/11/09 13:30:46;;;;;;;;;;;;;;;34.85;8.52;96408.94;4998464;28;20000;-74
2021/11/09 13:33:12;;;;;;;;;;;;;;;35.22;8.28;96399.63;4996803;28;20276;-76
2021/11/09 13:35:38;;;;;;;;;;;;;;;35.60;6.90;96396.28;4997403;28;20702;-74
2021/11/09 13:38:08;;;;;;;;;;;;;;;35.77;8.01;96400.22;4998653;28;20016;-75
2021/11/09 13:40:33;;;;;;;;;;;;;;;35.75;7.33;96394.19;4996232;28;20319;-76
2021/11/09 13:43:02;;;;;;;;;;;;;;;35.52;7.16;96386.81;4998009;28;19931;-75
2021/11/09 13:45:27;;;;;;;;;;;;;;;34.59;9.72;96381.97;4979175;28;19922;-73
2021/11/09 13:47:53;;;;;;;;;;;;;;;35.21;8.50;96381.41;4994362;28;19933;-75
2021/11/09 13:50:18;;;;;;;;;;;;;;;34.78;9.14;96376.22;4996818;28;20382;-75
2021/11/09 13:52:44;;;;;;;;;;;;;;;34.46;9.77;96385.66;4998302;28;19928;-74
2021/11/09 13:55:09;;;;;;;;;;;;;;;35.57;9.27;96377.53;5012650;28;20184;-74
2021/11/09 13:57:35;;;;;;;;;;;;;;;35.86;7.29;96370.59;4997810;28;19921;-76
2021/11/09 14:00:19;;;;;;;;;;;;;;;36.31;7.11;96371.34;4976391;28;19929;-76
2021/11/09 14:02:55;;;;;;;;;;;;;;;36.11;8.43;96372.84;5009658;28;19966;-76
2021/11/09 14:05:51;;;;;;;;;;;;;;;36.23;8.29;96377.72;4996470;28;19921;-75
2021/11/09 14:16:20;;;;;;;;;;;;;;;36.16;8.15;96381.78;4977217;28;19953;-75
2021/11/09 14:18:52;;;;;;;;;;;;;;;35.56;8.86;96382.28;5005017;28;19992;-76
2021/11/09 14:21:17;;;;;;;;;;;;;;;34.90;9.19;96383.09;4963541;28;20378;-75
2021/11/09 14:23:43;;;;;;;;;;;;;;;34.53;9.00;96383.25;4981345;28;19932;-76
2021/11/09 14:26:19;;;;;;;;;;;;;;;34.70;9.40;96381.69;4977016;28;20013;-75
2021/11/09 14:28:44;;;;;;;;;;;;;;;34.98;9.33;96381.50;4994222;28;19937;-75
2021/11/09 14:31:10;;;;;;;;;;;;;;;34.39;9.97;96381.38;4997292;28;19988;-74
2021/11/09 14:33:37;;;;;;;;;;;;;;;34.63;9.72;96377.44;4997005;28;19930;-73
2021/11/09 14:36:02;;;;;;;;;;;;;;;34.47;9.17;96376.22;4997662;28;20326;-75
2021/11/09 14:38:28;;;;;;;;;;;;;;;34.34;9.92;96380.69;4998091;28;19930;-75
2021/11/09 14:40:59;;;;;;;;;;;;;;;34.15;9.95;96373.41;5000213;28;19925;-77
2021/11/09 14:43:29;;;;;;;;;;;;;;;34.25;9.71;96375.09;5000808;28;20647;-75
2021/11/09 14:46:04;;;;;;;;;;;;;;;33.62;10.42;96371.06;4993232;28;20893;-76
2021/11/09 14:48:49;;;;;;;;;;;;;;;32.90;10.57;96381.66;4999833;28;20440;-76
2021/11/09 14:51:17;;;;;;;;;;;;;;;32.55;10.80;96376.53;4991910;28;19932;-75
2021/11/09 14:56:16;;;;;;;;;;;;;;;31.66;10.69;96370.78;4999586;28;19933;-75
2021/11/09 14:58:42;;;;;;;;;;;;;;;31.39;11.68;96373.06;5002077;28;19921;-76
2021/11/09 15:04:00;;;;;;;;;;;;;;;30.62;12.00;96372.84;5000427;28;20028;-76
2021/11/09 15:12:07;;;;;;;;;;;;;;;29.15;11.76;96376.88;4999367;28;19974;-75
2021/11/09 15:28:14;;;;;;;;;;;;;;;24.37;17.56;96397.63;5000149;28;19929;-74
2021/11/09 15:33:35;;;;;;;;;;;;;;;23.40;15.23;96396.50;5001002;28;20371;-71
2021/11/09 15:38:41;;;;;;;;;;;;;;;21.32;20.79;96399.78;4998277;28;19925;-59
2021/11/09 15:41:07;;;;;;;;;;;;;;;20.52;21.28;96398.72;4999610;28;19928;-61
2021/11/09 15:43:32;;;;;;;;;;;;;;;19.61;23.01;96399.84;4999114;28;19991;-59
2021/11/09 15:45:59;;;;;;;;;;;;;;;18.57;23.54;96399.56;5000262;28;20028;-60
2021/11/09 15:48:24;;;;;;;;;;;;;;;17.39;26.36;96392.66;4999631;28;20188;-59
2021/11/09 15:50:50;;;;;;;;;;;;;;;16.44;27.51;96394.06;4998217;28;19956;-60
2021/11/09 15:53:15;;;;;;;;;;;;;;;15.53;29.40;96390.16;4998520;28;19929;-59
2021/11/09 15:55:40;;;;;;;;;;;;;;;14.67;30.49;96393.25;4999599;28;19922;-58
2021/11/09 15:58:06;;;;;;;;;;;;;;;13.90;30.04;96393.31;4997068;28;19925;-60
2021/11/09 16:00:32;;;;;;;;;;;;;;;13.18;28.63;96390.78;4999335;28;19930;-58